createdAt,value
2023-02-28T00:03:52.440Z,13.35
2023-02-28T00:06:19.469Z,14.60
2023-02-28T00:08:46.710Z,13.57
2023-02-28T00:11:15.421Z,14.13
2023-02-28T00:13:47.629Z,13.70
2023-02-28T00:16:20.633Z,13.88
2023-02-28T00:18:51.316Z,13.77
2023-02-28T00:21:19.594Z,15.98
2023-02-28T00:23:46.628Z,14.82
2023-02-28T00:26:13.908Z,13.98
2023-02-28T00:28:45.004Z,15.90
2023-02-28T00:31:12.097Z,15.85
2023-02-28T00:33:39.110Z,15.55
2023-02-28T00:36:11.989Z,15.23
2023-02-28T00:38:39.822Z,15.38
2023-02-28T00:41:08.182Z,15.85
2023-02-28T00:43:36.820Z,14.77
2023-02-28T00:46:04.618Z,15.30
2023-02-28T00:48:32.021Z,15.77
2023-02-28T00:50:59.110Z,15.07
2023-02-28T00:53:26.384Z,16.70
2023-02-28T00:55:53.382Z,16.88
2023-02-28T00:58:20.414Z,15.35
2023-02-28T01:00:50.145Z,16.45
2023-02-28T01:03:19.352Z,17.20
2023-02-28T01:05:46.974Z,17.08
2023-02-28T01:08:15.152Z,21.25
2023-02-28T01:10:42.975Z,17.80
2023-02-28T01:13:10.866Z,17.95
2023-02-28T01:15:40.721Z,18.73
2023-02-28T01:18:07.565Z,19.08
2023-02-28T01:20:38.227Z,21.23
2023-02-28T01:23:05.229Z,20.77
2023-02-28T01:25:32.166Z,18.45
2023-02-28T01:27:59.039Z,18.60
2023-02-28T01:30:28.900Z,20.40
2023-02-28T01:32:55.906Z,20.63
2023-02-28T01:35:22.760Z,19.40
2023-02-28T01:37:49.719Z,19.15
2023-02-28T01:40:17.065Z,18.45
2023-02-28T01:42:44.086Z,20.10
2023-02-28T01:45:26.415Z,19.25
2023-02-28T01:47:57.470Z,19.92
2023-02-28T01:50:29.141Z,21.25
2023-02-28T01:53:01.208Z,22.15
2023-02-28T01:55:29.811Z,20.85
2023-02-28T01:58:03.138Z,21.15
2023-02-28T02:00:32.249Z,20.17
2023-02-28T02:03:05.147Z,19.30
2023-02-28T02:05:34.771Z,20.55
2023-02-28T02:08:09.086Z,20.27
2023-02-28T02:10:44.139Z,21.63
2023-02-28T02:13:35.202Z,21.05
2023-02-28T02:16:13.945Z,19.73
2023-02-28T02:18:53.699Z,20.42
2023-02-28T02:21:42.505Z,19.48
2023-02-28T02:24:33.038Z,20.15
2023-02-28T02:27:19.407Z,19.70
2023-02-28T02:29:58.939Z,18.38
2023-02-28T02:32:44.940Z,19.98
2023-02-28T02:35:17.944Z,20.17
2023-02-28T02:37:47.902Z,20.58
2023-02-28T02:40:21.569Z,22.70
2023-02-28T02:43:25.568Z,22.77
2023-02-28T02:46:09.466Z,23.05
2023-02-28T02:48:40.910Z,26.38
2023-02-28T02:51:14.584Z,25.25
2023-02-28T02:53:55.574Z,26.77
2023-02-28T02:56:27.509Z,29.35
2023-02-28T02:58:59.638Z,28.50
2023-02-28T03:01:30.280Z,27.23
2023-02-28T03:04:05.644Z,30.83
2023-02-28T03:06:32.821Z,31.50
2023-02-28T03:09:01.439Z,27.45
2023-02-28T03:14:11.076Z,23.92
2023-02-28T03:16:58.302Z,24.40
2023-02-28T03:19:39.132Z,23.40
2023-02-28T03:22:41.451Z,25.67
2023-02-28T03:25:14.214Z,24.80
2023-02-28T03:27:54.869Z,23.50
2023-02-28T03:30:48.808Z,22.75
2023-02-28T03:33:31.386Z,22.58
2023-02-28T03:36:03.731Z,21.35
2023-02-28T03:38:37.896Z,21.15
2023-02-28T03:41:16.547Z,23.60
2023-02-28T03:43:50.877Z,23.92
2023-02-28T03:46:23.860Z,22.90
2023-02-28T03:49:19.768Z,22.88
2023-02-28T03:51:49.311Z,21.65
2023-02-28T03:54:28.786Z,22.17
2023-02-28T03:57:06.831Z,22.38
2023-02-28T03:59:55.431Z,23.02
2023-02-28T04:02:22.360Z,25.02
2023-02-28T04:05:08.216Z,23.55
2023-02-28T04:07:35.305Z,23.63
2023-02-28T04:10:02.379Z,22.90
2023-02-28T04:12:29.950Z,22.70
2023-02-28T04:14:56.913Z,23.38
2023-02-28T04:17:23.864Z,24.13
2023-02-28T04:19:50.875Z,25.77
2023-02-28T04:22:19.323Z,24.70
2023-02-28T04:24:46.296Z,26.65
2023-02-28T04:27:13.308Z,25.58
2023-02-28T04:29:40.125Z,27.27
2023-02-28T04:32:07.100Z,22.23
2023-02-28T04:34:34.211Z,22.85
2023-02-28T04:37:12.751Z,22.25
2023-02-28T04:39:40.158Z,20.58
2023-02-28T04:42:25.826Z,20.90
2023-02-28T04:44:52.790Z,21.00
2023-02-28T04:47:19.708Z,20.40
2023-02-28T04:49:47.039Z,22.17
2023-02-28T04:52:14.320Z,21.70
2023-02-28T04:55:00.056Z,22.17
2023-02-28T04:57:26.985Z,22.92
2023-02-28T04:59:54.098Z,23.48
2023-02-28T05:02:22.201Z,23.17
2023-02-28T05:04:49.316Z,23.85
2023-02-28T05:07:16.167Z,25.95
2023-02-28T05:09:43.294Z,24.98
2023-02-28T05:12:10.713Z,24.42
2023-02-28T05:14:37.929Z,24.92
2023-02-28T05:17:04.861Z,24.65
2023-02-28T05:19:31.765Z,24.42
2023-02-28T05:21:59.129Z,25.60
2023-02-28T05:24:26.058Z,22.55
2023-02-28T05:26:54.690Z,23.70
2023-02-28T05:29:22.171Z,21.77
2023-02-28T05:31:49.279Z,22.85
2023-02-28T05:34:17.084Z,22.67
2023-02-28T05:36:44.651Z,22.73
2023-02-28T05:39:13.727Z,21.98
2023-02-28T05:41:42.772Z,22.67
2023-02-28T05:44:10.426Z,20.77
2023-02-28T05:46:37.360Z,21.75
2023-02-28T05:49:04.649Z,22.33
2023-02-28T05:51:32.020Z,22.85
2023-02-28T05:54:02.571Z,20.80
2023-02-28T05:56:30.131Z,23.50
2023-02-28T05:58:57.286Z,22.60
2023-02-28T06:01:33.149Z,24.65
2023-02-28T06:04:01.913Z,26.85
2023-02-28T06:06:30.072Z,25.25
2023-02-28T06:08:57.608Z,24.13
2023-02-28T06:11:28.792Z,25.40
2023-02-28T06:13:58.408Z,25.70
2023-02-28T06:16:26.988Z,25.58
2023-02-28T06:18:56.684Z,26.40
2023-02-28T06:21:23.772Z,24.38
2023-02-28T06:23:50.990Z,23.98
2023-02-28T06:26:18.345Z,23.50
2023-02-28T06:28:45.158Z,24.17
2023-02-28T06:31:15.848Z,24.40
2023-02-28T06:33:44.464Z,24.73
2023-02-28T06:36:13.583Z,26.53
2023-02-28T06:38:42.099Z,25.52
2023-02-28T06:41:09.465Z,27.67
2023-02-28T06:43:41.095Z,26.55
2023-02-28T06:46:11.528Z,25.60
2023-02-28T06:48:38.789Z,25.70
2023-02-28T06:51:09.554Z,26.65
2023-02-28T06:53:38.010Z,26.42
2023-02-28T06:56:07.521Z,29.25
2023-02-28T06:58:35.233Z,30.00
2023-02-28T07:01:03.007Z,28.33
2023-02-28T07:03:30.188Z,27.85
2023-02-28T07:05:57.476Z,28.33
2023-02-28T07:08:25.498Z,27.83
2023-02-28T07:10:54.292Z,28.48
2023-02-28T07:13:22.618Z,27.90
2023-02-28T07:16:04.506Z,28.00
2023-02-28T07:18:32.054Z,25.73
2023-02-28T07:20:59.695Z,26.90
2023-02-28T07:23:26.853Z,26.23
2023-02-28T07:25:53.911Z,26.73
2023-02-28T07:28:20.984Z,26.60
2023-02-28T07:30:49.202Z,25.65
2023-02-28T07:33:17.669Z,23.80
2023-02-28T07:35:45.023Z,24.33
2023-02-28T07:38:12.617Z,25.05
2023-02-28T07:40:39.661Z,25.85
2023-02-28T07:43:06.565Z,23.40
2023-02-28T07:45:35.487Z,22.67
2023-02-28T07:48:03.473Z,23.67
2023-02-28T07:50:31.873Z,22.65
2023-02-28T07:53:00.091Z,25.67
2023-02-28T07:55:27.516Z,23.83
2023-02-28T07:57:55.180Z,22.95
2023-02-28T08:00:22.757Z,24.77
2023-02-28T08:02:49.856Z,25.60
2023-02-28T08:05:18.794Z,23.95
2023-02-28T08:07:48.617Z,21.73
2023-02-28T08:10:15.902Z,23.10
2023-02-28T08:12:43.040Z,21.73
2023-02-28T08:15:10.358Z,24.92
2023-02-28T08:17:37.632Z,22.70
2023-02-28T08:20:05.417Z,22.98
2023-02-28T08:22:32.481Z,21.08
2023-02-28T08:24:59.370Z,21.00
2023-02-28T08:27:26.320Z,22.40
2023-02-28T08:29:53.137Z,22.48
2023-02-28T08:32:29.314Z,21.27
2023-02-28T08:34:57.760Z,23.58
2023-02-28T08:37:25.116Z,23.13
2023-02-28T08:39:54.845Z,23.83
2023-02-28T08:42:24.213Z,23.23
2023-02-28T08:44:51.282Z,23.02
2023-02-28T08:47:18.431Z,23.17
2023-02-28T08:49:45.334Z,25.33
2023-02-28T08:52:12.195Z,23.20
2023-02-28T08:54:39.389Z,24.55
2023-02-28T08:57:06.514Z,23.45
2023-02-28T08:59:33.850Z,24.13
2023-02-28T09:02:00.741Z,23.98
2023-02-28T09:04:27.636Z,23.33
2023-02-28T09:06:54.863Z,24.88
2023-02-28T09:09:21.886Z,24.15
2023-02-28T09:11:48.754Z,29.58
2023-02-28T09:14:15.929Z,26.25
2023-02-28T09:16:42.842Z,23.38
2023-02-28T09:19:13.119Z,22.85
2023-02-28T09:21:40.259Z,22.90
2023-02-28T09:24:07.678Z,27.83
2023-02-28T09:26:42.717Z,32.92
2023-02-28T09:29:12.072Z,32.03
2023-02-28T09:31:39.029Z,33.40
2023-02-28T09:34:06.007Z,30.70
2023-02-28T09:36:43.584Z,31.75
2023-02-28T09:39:13.075Z,25.27
2023-02-28T09:41:49.535Z,19.92
2023-02-28T09:44:24.777Z,15.38
2023-02-28T09:46:57.843Z,14.93
2023-02-28T09:49:32.629Z,14.75
2023-02-28T09:52:11.627Z,17.05
2023-02-28T09:54:39.785Z,15.45
2023-02-28T09:57:24.879Z,15.30
2023-02-28T10:00:10.563Z,14.07
2023-02-28T10:03:07.704Z,13.68
2023-02-28T10:05:43.427Z,15.38
2023-02-28T10:08:28.041Z,13.88
2023-02-28T10:11:07.365Z,12.93
2023-02-28T10:13:42.881Z,13.38
2023-02-28T10:16:15.796Z,12.77
2023-02-28T10:18:51.994Z,13.82
2023-02-28T10:21:47.271Z,12.15
2023-02-28T10:24:38.428Z,12.55
2023-02-28T10:27:17.195Z,13.48
2023-02-28T10:29:49.131Z,12.73
2023-02-28T10:32:18.906Z,13.10
2023-02-28T10:34:52.006Z,12.60
2023-02-28T10:37:20.847Z,12.23
2023-02-28T10:39:48.431Z,12.52
2023-02-28T10:42:30.055Z,12.10
2023-02-28T10:45:17.715Z,14.57
2023-02-28T10:47:54.912Z,11.20
2023-02-28T10:50:52.079Z,12.25
2023-02-28T10:53:28.412Z,11.13
2023-02-28T10:56:14.948Z,11.82
2023-02-28T10:58:54.235Z,12.23
2023-02-28T11:03:53.970Z,12.02
2023-02-28T11:06:24.530Z,11.88
2023-02-28T11:08:57.865Z,13.13
2023-02-28T11:11:28.967Z,12.50
2023-02-28T11:14:07.006Z,12.43
2023-02-28T11:16:36.898Z,12.40
2023-02-28T11:19:06.305Z,11.75
2023-02-28T11:21:37.754Z,11.27
2023-02-28T11:24:43.188Z,12.25
2023-02-28T11:27:31.911Z,11.75
2023-02-28T11:30:00.818Z,11.82
2023-02-28T11:32:31.455Z,11.57
2023-02-28T11:35:03.614Z,11.98
2023-02-28T11:37:32.374Z,12.10
2023-02-28T11:39:59.317Z,12.88
2023-02-28T11:42:44.431Z,12.30
2023-02-28T11:45:23.891Z,12.95
2023-02-28T11:48:09.011Z,14.07
2023-02-28T11:50:54.819Z,11.77
2023-02-28T11:53:43.381Z,12.57
2023-02-28T11:56:19.703Z,13.52
2023-02-28T11:58:55.610Z,13.30
2023-02-28T12:01:25.937Z,13.23
2023-02-28T12:04:48.618Z,13.23
2023-02-28T12:07:36.827Z,13.32
2023-02-28T12:10:44.981Z,12.90
2023-02-28T12:13:43.295Z,12.75
2023-02-28T12:16:38.116Z,12.23
2023-02-28T12:19:29.542Z,12.57
2023-02-28T12:22:15.150Z,11.80
2023-02-28T12:25:08.426Z,12.52
2023-02-28T12:27:42.613Z,11.73
2023-02-28T12:30:22.140Z,12.38
2023-02-28T12:33:14.936Z,13.02
2023-02-28T12:35:58.064Z,13.10
2023-02-28T12:38:48.600Z,11.80
2023-02-28T12:41:41.727Z,11.90
2023-02-28T12:44:28.911Z,12.65
2023-02-28T12:47:00.698Z,12.20
2023-02-28T12:49:34.059Z,12.32
2023-02-28T12:52:03.945Z,11.95
2023-02-28T12:54:45.148Z,11.20
2023-02-28T12:57:15.121Z,11.52
2023-02-28T12:59:59.466Z,12.38
2023-02-28T13:03:07.804Z,14.07
2023-02-28T13:06:08.655Z,11.15
2023-02-28T13:09:10.639Z,10.73
2023-02-28T13:11:43.099Z,10.77
2023-02-28T13:14:28.775Z,12.75
2023-02-28T13:17:15.923Z,12.43
2023-02-28T13:19:46.859Z,12.10
2023-02-28T13:22:41.754Z,12.10
2023-02-28T13:25:23.947Z,11.90
2023-02-28T13:27:57.252Z,13.00
2023-02-28T13:30:52.789Z,13.27
2023-02-28T13:33:30.451Z,12.57
2023-02-28T13:36:09.494Z,11.68
2023-02-28T13:38:48.854Z,11.77
2023-02-28T13:44:06.990Z,10.95
2023-02-28T13:46:37.285Z,10.65
2023-02-28T13:49:37.867Z,11.25
2023-02-28T13:52:20.278Z,12.27
2023-02-28T13:55:00.043Z,11.30
2023-02-28T13:57:56.130Z,11.13
2023-02-28T14:00:38.329Z,10.90
2023-02-28T14:03:37.794Z,11.75
2023-02-28T14:06:10.848Z,10.35
2023-02-28T14:08:38.477Z,11.07
2023-02-28T14:11:26.255Z,10.23
2023-02-28T14:13:53.609Z,12.20
2023-02-28T14:16:46.546Z,10.60
2023-02-28T14:19:28.658Z,10.93
2023-02-28T14:22:13.799Z,11.80
2023-02-28T14:24:43.342Z,11.82
2023-02-28T14:27:27.490Z,11.88
2023-02-28T14:30:08.161Z,11.43
2023-02-28T14:32:54.089Z,12.20
2023-02-28T14:35:55.815Z,11.20
2023-02-28T14:38:34.065Z,11.63
2023-02-28T14:41:05.863Z,10.83
2023-02-28T14:43:33.146Z,11.15
2023-02-28T14:46:05.369Z,11.30
2023-02-28T14:48:32.432Z,12.00
2023-02-28T14:51:01.659Z,11.05
2023-02-28T14:53:31.561Z,11.10
2023-02-28T14:55:59.027Z,11.15
2023-02-28T14:58:33.803Z,10.40
2023-02-28T15:01:03.476Z,10.98
2023-02-28T15:06:06.165Z,10.75
2023-02-28T15:08:37.243Z,10.05
2023-02-28T15:11:23.260Z,11.23
2023-02-28T15:13:53.340Z,10.25
2023-02-28T15:16:20.189Z,10.38
2023-02-28T15:18:57.076Z,10.20
2023-02-28T15:21:35.016Z,10.25
2023-02-28T15:24:07.429Z,11.15
2023-02-28T15:26:44.120Z,11.32
2023-02-28T15:29:24.435Z,10.63
2023-02-28T15:32:06.408Z,10.02
2023-02-28T15:34:43.742Z,10.15
2023-02-28T15:37:38.997Z,9.15
2023-02-28T15:40:17.564Z,10.32
2023-02-28T15:43:08.560Z,10.43
2023-02-28T15:45:42.373Z,11.27
2023-02-28T15:48:20.463Z,9.38
2023-02-28T15:50:52.605Z,9.82
2023-02-28T15:53:31.221Z,9.15
2023-02-28T15:56:02.808Z,10.45
2023-02-28T15:58:30.319Z,9.43
2023-02-28T16:01:17.892Z,8.73
2023-02-28T16:03:48.663Z,8.93
2023-02-28T16:06:34.473Z,9.88
2023-02-28T16:09:01.952Z,9.48
2023-02-28T16:11:29.389Z,9.45
2023-02-28T16:13:56.585Z,9.38
2023-02-28T16:16:25.775Z,10.73
2023-02-28T16:21:20.109Z,10.30
2023-02-28T16:23:46.955Z,9.98
2023-02-28T16:26:23.126Z,10.20
2023-02-28T16:28:50.971Z,8.93
2023-02-28T16:31:18.963Z,8.85
2023-02-28T16:33:46.797Z,8.25
2023-02-28T16:36:22.901Z,8.50
2023-02-28T16:38:51.483Z,8.70
2023-02-28T16:41:21.343Z,7.93
2023-02-28T16:43:50.216Z,9.73
2023-02-28T16:46:17.821Z,9.30
2023-02-28T16:48:46.586Z,8.27
2023-02-28T16:51:14.928Z,8.30
2023-02-28T16:53:42.941Z,8.23
2023-02-28T16:56:30.797Z,7.63
2023-02-28T16:59:02.823Z,8.52
2023-02-28T17:01:30.300Z,8.30
2023-02-28T17:03:57.809Z,8.00
2023-02-28T17:06:29.337Z,7.32
2023-02-28T17:08:58.766Z,6.82
2023-02-28T17:11:27.033Z,6.22
2023-02-28T17:13:54.988Z,7.40
2023-02-28T17:16:33.841Z,7.38
2023-02-28T17:19:03.640Z,8.43
2023-02-28T17:21:32.067Z,7.97
2023-02-28T17:23:59.426Z,7.23
2023-02-28T17:26:26.993Z,7.20
2023-02-28T17:28:56.814Z,6.65
2023-02-28T17:31:24.950Z,7.28
2023-02-28T17:33:52.466Z,5.80
2023-02-28T17:36:25.755Z,5.32
2023-02-28T17:38:54.353Z,5.43
2023-02-28T17:41:21.218Z,5.68
2023-02-28T17:43:48.484Z,5.53
2023-02-28T17:46:21.893Z,4.63
2023-02-28T17:48:50.182Z,4.80
2023-02-28T17:51:18.636Z,5.15
2023-02-28T17:53:46.007Z,5.00
2023-02-28T17:56:16.117Z,4.95
2023-02-28T17:58:43.193Z,4.80
2023-02-28T18:01:10.685Z,4.65
2023-02-28T18:03:37.723Z,4.20
2023-02-28T18:06:06.231Z,4.85
2023-02-28T18:08:35.826Z,4.87
2023-02-28T18:11:03.228Z,4.47
2023-02-28T18:13:30.385Z,4.78
2023-02-28T18:15:57.393Z,4.45
2023-02-28T18:18:24.301Z,5.40
2023-02-28T18:20:53.378Z,5.32
2023-02-28T18:23:21.578Z,5.45
2023-02-28T18:25:48.608Z,5.47
2023-02-28T18:28:15.566Z,5.55
2023-02-28T18:30:42.424Z,5.15
2023-02-28T18:33:09.478Z,5.80
2023-02-28T18:35:36.578Z,5.32
2023-02-28T18:38:11.533Z,5.38
2023-02-28T18:40:39.053Z,5.22
2023-02-28T18:43:06.300Z,5.47
2023-02-28T18:45:36.764Z,4.88
2023-02-28T18:48:03.747Z,5.20
2023-02-28T18:50:31.082Z,5.80
2023-02-28T18:52:59.628Z,5.60
2023-02-28T18:55:27.906Z,5.72
2023-02-28T18:57:54.977Z,5.68
2023-02-28T19:00:22.879Z,6.00
2023-02-28T19:02:50.857Z,5.60
2023-02-28T19:05:19.817Z,5.60
2023-02-28T19:07:46.822Z,5.82
2023-02-28T19:10:14.227Z,6.22
2023-02-28T19:12:43.277Z,6.25
2023-02-28T19:15:11.711Z,7.22
2023-02-28T19:17:39.673Z,6.05
2023-02-28T19:20:08.142Z,7.03
2023-02-28T19:22:37.053Z,6.35
2023-02-28T19:25:05.726Z,7.38
2023-02-28T19:27:32.833Z,7.43
2023-02-28T19:30:00.234Z,6.15
2023-02-28T19:32:28.030Z,7.63
2023-02-28T19:34:55.177Z,7.32
2023-02-28T19:37:22.100Z,7.82
2023-02-28T19:39:49.119Z,7.05
2023-02-28T19:42:18.004Z,7.38
2023-02-28T19:44:45.656Z,7.85
2023-02-28T19:47:13.292Z,7.80
2023-02-28T19:49:40.940Z,6.88
2023-02-28T19:52:11.708Z,7.05
2023-02-28T19:54:42.319Z,7.68
2023-02-28T19:57:09.486Z,6.60
2023-02-28T19:59:39.887Z,6.78
2023-02-28T20:02:17.466Z,7.35
2023-02-28T20:04:48.855Z,6.97
2023-02-28T20:07:17.772Z,7.68
2023-02-28T20:09:45.611Z,8.45
2023-02-28T20:12:23.388Z,7.72
2023-02-28T20:14:51.203Z,8.57
2023-02-28T20:17:19.107Z,9.32
2023-02-28T20:19:46.290Z,8.73
2023-02-28T20:22:13.355Z,9.10
2023-02-28T20:24:40.407Z,9.13
2023-02-28T20:27:07.868Z,9.15
2023-02-28T20:29:36.038Z,14.30
2023-02-28T20:32:03.158Z,9.63
2023-02-28T20:34:30.116Z,9.13
2023-02-28T20:36:58.936Z,10.93
2023-02-28T20:39:26.205Z,9.75
2023-02-28T20:41:53.244Z,9.90
2023-02-28T20:44:20.381Z,9.93
2023-02-28T20:46:47.515Z,9.50
2023-02-28T20:49:15.901Z,10.95
2023-02-28T20:51:42.942Z,12.33
2023-02-28T20:54:11.815Z,11.15
2023-02-28T20:56:38.956Z,13.38
2023-02-28T20:59:05.903Z,9.88
2023-02-28T21:01:33.347Z,10.18
2023-02-28T21:04:02.842Z,9.18
2023-02-28T21:08:59.666Z,8.43
2023-02-28T21:11:31.530Z,8.52
2023-02-28T21:14:00.970Z,8.45
2023-02-28T21:16:29.725Z,8.20
2023-02-28T21:19:03.979Z,8.00
2023-02-28T21:21:36.624Z,8.40
2023-02-28T21:24:04.002Z,8.50
2023-02-28T21:26:31.542Z,8.88
2023-02-28T21:29:00.919Z,9.00
2023-02-28T21:31:31.268Z,7.97
2023-02-28T21:34:00.164Z,7.53
2023-02-28T21:36:35.451Z,7.80
2023-02-28T21:39:07.766Z,8.38
2023-02-28T21:41:35.106Z,7.82
2023-02-28T21:44:02.065Z,6.70
2023-02-28T21:46:34.517Z,7.65
2023-02-28T21:49:02.035Z,7.18
2023-02-28T21:51:31.528Z,7.25
2023-02-28T21:53:59.928Z,7.60
2023-02-28T21:56:32.852Z,7.50
2023-02-28T21:59:00.985Z,7.90
2023-02-28T22:01:37.509Z,6.85
2023-02-28T22:04:07.278Z,7.55
2023-02-28T22:06:37.144Z,6.82
2023-02-28T22:09:07.396Z,7.55
2023-02-28T22:11:36.048Z,7.40
2023-02-28T22:14:03.080Z,7.23
2023-02-28T22:16:37.906Z,7.90
2023-02-28T22:19:15.401Z,6.95
2023-02-28T22:21:42.763Z,7.10
2023-02-28T22:24:10.872Z,7.95
2023-02-28T22:26:38.263Z,7.97
2023-02-28T22:29:05.201Z,8.02
2023-02-28T22:31:34.584Z,8.70
2023-02-28T22:36:30.479Z,8.73
2023-02-28T22:38:58.613Z,7.75
2023-02-28T22:41:26.720Z,7.65
2023-02-28T22:43:59.026Z,8.68
2023-02-28T22:46:28.480Z,8.13
2023-02-28T22:48:55.886Z,8.63
2023-02-28T22:51:25.456Z,6.45
2023-02-28T22:53:54.292Z,6.85
2023-02-28T22:56:24.471Z,6.63
2023-02-28T22:58:57.259Z,5.50
2023-02-28T23:01:26.580Z,5.72
2023-02-28T23:06:23.672Z,5.32
2023-02-28T23:08:52.891Z,5.43
2023-02-28T23:11:26.156Z,4.82
2023-02-28T23:13:59.672Z,4.60
2023-02-28T23:16:26.672Z,4.80
2023-02-28T23:18:53.574Z,4.93
2023-02-28T23:21:20.768Z,4.63
2023-02-28T23:23:47.659Z,4.45
2023-02-28T23:26:14.691Z,4.45
2023-02-28T23:28:41.611Z,5.22
2023-02-28T23:31:08.610Z,4.40
2023-02-28T23:33:35.507Z,4.15
2023-02-28T23:36:14.361Z,3.97
2023-02-28T23:38:43.088Z,4.00
2023-02-28T23:41:11.578Z,3.60
2023-02-28T23:43:40.722Z,4.10
2023-02-28T23:46:08.743Z,4.00
2023-02-28T23:48:36.107Z,4.60
2023-02-28T23:51:09.438Z,4.22
2023-02-28T23:53:42.400Z,5.07
2023-02-28T23:56:14.741Z,4.80
2023-02-28T23:58:43.784Z,5.38
